createdAt,value
2019-05-01T00:00:51.883Z,88.51
2019-05-01T00:03:32.840Z,89.20
2019-05-01T00:06:05.977Z,89.24
2019-05-01T00:08:37.513Z,89.47
2019-05-01T00:11:08.032Z,89.53
2019-05-01T00:13:38.492Z,89.74
2019-05-01T00:16:08.945Z,89.77
2019-05-01T00:18:39.418Z,89.97
2019-05-01T00:21:10.854Z,90.09
2019-05-01T00:23:41.317Z,90.39
2019-05-01T00:26:12.757Z,90.46
2019-05-01T00:28:43.285Z,90.57
2019-05-01T00:31:13.762Z,90.58
2019-05-01T00:33:45.273Z,90.81
2019-05-01T00:36:15.972Z,90.70
2019-05-01T00:38:46.444Z,90.68
2019-05-01T00:41:16.829Z,91.22
2019-05-01T00:43:47.221Z,91.30
2019-05-01T00:46:17.672Z,91.29
2019-05-01T00:48:52.110Z,91.67
2019-05-01T00:51:22.602Z,91.97
2019-05-01T00:53:53.073Z,92.17
2019-05-01T00:56:41.862Z,92.51
2019-05-01T00:59:24.124Z,92.44
2019-05-01T01:02:08.285Z,92.74
2019-05-01T01:04:38.771Z,92.73
2019-05-01T01:07:10.404Z,92.87
2019-05-01T01:09:40.935Z,92.77
2019-05-01T01:12:11.513Z,92.68
2019-05-01T01:14:41.998Z,92.66
2019-05-01T01:17:12.440Z,93.04
2019-05-01T01:19:42.950Z,93.31
2019-05-01T01:22:13.405Z,93.85
2019-05-01T01:24:43.891Z,93.50
2019-05-01T01:27:14.849Z,93.62
2019-05-01T01:29:45.922Z,93.60
2019-05-01T01:32:16.409Z,93.61
2019-05-01T01:34:47.947Z,93.79
2019-05-01T01:37:20.518Z,93.88
2019-05-01T01:39:51.013Z,94.20
2019-05-01T01:42:23.086Z,94.55
2019-05-01T01:44:56.680Z,94.75
2019-05-01T01:47:27.140Z,95.19
2019-05-01T01:49:58.134Z,95.06
2019-05-01T01:52:28.741Z,95.64
2019-05-01T01:54:59.230Z,95.58
2019-05-01T01:57:31.013Z,95.50
2019-05-01T02:00:01.518Z,95.49
2019-05-01T02:02:35.784Z,95.48
2019-05-01T02:05:08.944Z,95.50
2019-05-01T02:07:39.514Z,95.54
2019-05-01T02:10:10.133Z,95.39
2019-05-01T02:12:41.621Z,95.20
2019-05-01T02:15:12.264Z,95.27
2019-05-01T02:17:42.746Z,95.28
2019-05-01T02:20:14.341Z,95.36
2019-05-01T02:22:45.916Z,95.39
2019-05-01T02:25:16.714Z,95.86
2019-05-01T02:28:05.721Z,96.33
2019-05-01T02:30:36.156Z,95.95
2019-05-01T02:33:07.043Z,96.11
2019-05-01T02:35:38.701Z,96.10
2019-05-01T02:38:10.477Z,96.53
2019-05-01T02:40:49.205Z,96.08
2019-05-01T02:43:21.523Z,96.21
2019-05-01T02:45:53.439Z,96.46
2019-05-01T02:48:25.454Z,96.62
2019-05-01T02:50:58.386Z,96.55
2019-05-01T02:53:30.340Z,96.95
2019-05-01T02:56:15.092Z,96.49
2019-05-01T02:58:48.747Z,96.48
2019-05-01T03:01:19.570Z,96.58
2019-05-01T03:03:50.999Z,96.74
2019-05-01T03:06:22.194Z,96.62
2019-05-01T03:08:54.118Z,96.21
2019-05-01T03:11:24.564Z,96.29
2019-05-01T03:13:57.605Z,96.41
2019-05-01T03:16:28.195Z,96.71
2019-05-01T03:19:03.181Z,96.65
2019-05-01T03:21:38.387Z,96.21
2019-05-01T03:24:13.353Z,96.39
2019-05-01T03:26:45.190Z,96.37
2019-05-01T03:29:16.679Z,96.25
2019-05-01T03:32:13.335Z,96.90
2019-05-01T03:34:19.380Z,96.29
2019-05-01T03:36:50.046Z,96.57
2019-05-01T03:39:20.994Z,96.80
2019-05-01T03:41:51.547Z,96.72
2019-05-01T03:44:22.206Z,96.46
2019-05-01T03:46:52.877Z,96.20
2019-05-01T03:49:23.567Z,96.23
2019-05-01T03:51:55.127Z,96.26
2019-05-01T03:54:25.643Z,96.27
2019-05-01T03:56:56.173Z,96.21
2019-05-01T03:59:27.599Z,96.00
2019-05-01T04:02:32.808Z,96.00
2019-05-01T04:04:51.415Z,95.85
2019-05-01T04:07:21.946Z,95.74
2019-05-01T04:09:53.880Z,95.53
2019-05-01T04:12:24.369Z,95.54
2019-05-01T04:14:54.886Z,95.04
2019-05-01T04:17:31.115Z,94.64
2019-05-01T04:20:01.997Z,95.14
2019-05-01T04:22:32.686Z,94.93
2019-05-01T04:25:03.354Z,94.80
2019-05-01T04:27:35.801Z,94.82
2019-05-01T04:30:11.036Z,94.68
2019-05-01T04:32:52.571Z,94.62
2019-05-01T04:35:26.666Z,94.57
2019-05-01T04:37:57.381Z,94.09
2019-05-01T04:40:28.059Z,93.59
2019-05-01T04:43:00.605Z,93.29
2019-05-01T04:45:31.089Z,93.15
2019-05-01T04:48:01.607Z,92.60
2019-05-01T04:50:32.030Z,92.24
2019-05-01T04:53:02.540Z,91.77
2019-05-01T04:55:33.026Z,91.57
2019-05-01T04:58:05.025Z,91.69
2019-05-01T05:00:36.404Z,91.33
2019-05-01T05:03:08.441Z,91.08
2019-05-01T05:05:44.833Z,91.14
2019-05-01T05:08:15.833Z,90.87
2019-05-01T05:10:47.222Z,90.56
2019-05-01T05:13:20.278Z,89.55
2019-05-01T05:16:00.058Z,89.83
2019-05-01T05:18:30.553Z,88.92
2019-05-01T05:21:01.038Z,88.48
2019-05-01T05:23:32.725Z,88.14
2019-05-01T05:26:03.702Z,87.33
2019-05-01T05:28:39.119Z,86.70
2019-05-01T05:31:14.528Z,86.32
2019-05-01T05:33:46.440Z,85.86
2019-05-01T05:36:17.371Z,86.21
2019-05-01T05:38:49.676Z,86.66
2019-05-01T05:41:22.502Z,85.60
2019-05-01T05:43:53.332Z,85.16
2019-05-01T05:46:23.930Z,84.35
2019-05-01T05:48:54.578Z,84.12
2019-05-01T05:51:31.207Z,84.09
2019-05-01T05:54:10.107Z,83.63
2019-05-01T05:56:43.594Z,83.12
2019-05-01T05:59:16.154Z,83.18
2019-05-01T06:01:49.643Z,83.08
2019-05-01T06:04:23.808Z,82.63
2019-05-01T06:07:20.166Z,82.47
2019-05-01T06:09:53.446Z,81.50
2019-05-01T06:12:25.699Z,80.71
2019-05-01T06:15:05.867Z,80.38
2019-05-01T06:17:39.883Z,79.67
2019-05-01T06:20:25.717Z,78.73
2019-05-01T06:23:07.224Z,78.79
2019-05-01T06:25:40.687Z,78.15
2019-05-01T06:28:11.814Z,77.72
2019-05-01T06:30:47.229Z,77.66
2019-05-01T06:33:15.438Z,76.73
2019-05-01T06:35:46.847Z,76.78
2019-05-01T06:38:18.007Z,75.24
2019-05-01T06:40:53.142Z,75.53
2019-05-01T06:43:43.435Z,75.82
2019-05-01T06:46:14.414Z,75.11
2019-05-01T06:49:06.882Z,76.93
2019-05-01T06:51:41.436Z,77.77
2019-05-01T06:54:16.110Z,77.51
2019-05-01T06:56:47.303Z,78.21
2019-05-01T06:59:18.261Z,77.47
2019-05-01T07:01:53.035Z,76.65
2019-05-01T07:04:23.506Z,76.78
2019-05-01T07:06:53.979Z,76.37
2019-05-01T07:09:28.007Z,76.32
2019-05-01T07:11:57.310Z,78.29
2019-05-01T07:14:28.166Z,78.10
2019-05-01T07:16:58.545Z,77.22
2019-05-01T07:19:35.581Z,76.30
2019-05-01T07:22:06.342Z,77.50
2019-05-01T07:24:37.049Z,76.90
2019-05-01T07:27:09.503Z,77.74
2019-05-01T07:29:44.987Z,78.09
2019-05-01T07:32:15.146Z,77.10
2019-05-01T07:34:48.867Z,75.27
2019-05-01T07:37:20.795Z,75.29
2019-05-01T07:39:51.860Z,72.05
2019-05-01T07:42:29.618Z,72.56
2019-05-01T07:45:17.893Z,73.62
2019-05-01T07:47:51.471Z,74.72
2019-05-01T07:50:23.907Z,76.36
2019-05-01T07:52:55.252Z,75.60
2019-05-01T07:55:38.161Z,74.31
2019-05-01T07:58:15.193Z,72.86
2019-05-01T08:00:50.492Z,68.94
2019-05-01T08:03:21.223Z,68.29
2019-05-01T08:05:51.836Z,67.15
2019-05-01T08:08:22.485Z,66.37
2019-05-01T08:10:53.042Z,67.43
2019-05-01T08:13:24.562Z,67.97
2019-05-01T08:15:57.618Z,66.07
2019-05-01T08:18:32.429Z,65.42
2019-05-01T08:21:21.108Z,66.30
2019-05-01T08:23:52.245Z,64.39
2019-05-01T08:26:22.821Z,64.97
2019-05-01T08:29:08.118Z,65.78
2019-05-01T08:31:40.273Z,65.26
2019-05-01T08:34:12.360Z,64.49
2019-05-01T08:36:47.295Z,66.00
2019-05-01T08:39:14.902Z,66.87
2019-05-01T08:41:45.385Z,67.76
2019-05-01T08:44:15.876Z,67.96
2019-05-01T08:47:00.061Z,66.96
2019-05-01T08:49:33.148Z,66.86
2019-05-01T08:52:04.778Z,68.01
2019-05-01T08:54:35.729Z,67.98
2019-05-01T08:57:07.907Z,68.31
2019-05-01T08:59:40.403Z,68.16
2019-05-01T09:02:10.863Z,68.45
2019-05-01T09:04:41.572Z,67.21
2019-05-01T09:07:14.684Z,65.40
2019-05-01T09:09:47.291Z,64.71
2019-05-01T09:12:17.944Z,64.91
2019-05-01T09:14:51.288Z,63.54
2019-05-01T09:17:22.088Z,63.08
2019-05-01T09:19:52.649Z,63.56
2019-05-01T09:22:23.212Z,63.50
2019-05-01T09:24:53.665Z,63.23
2019-05-01T09:27:45.325Z,62.49
2019-05-01T09:30:21.674Z,61.24
2019-05-01T09:32:54.128Z,61.24
2019-05-01T09:35:21.823Z,59.68
2019-05-01T09:37:52.346Z,60.77
2019-05-01T09:40:22.849Z,61.67
2019-05-01T09:42:54.617Z,61.57
2019-05-01T09:45:26.594Z,61.62
2019-05-01T09:47:57.056Z,61.07
2019-05-01T09:50:30.380Z,61.89
2019-05-01T09:53:18.747Z,61.48
2019-05-01T09:55:56.860Z,59.61
2019-05-01T09:58:27.440Z,60.76
2019-05-01T10:01:00.762Z,61.41
2019-05-01T10:03:31.615Z,61.71
2019-05-01T10:06:03.298Z,61.59
2019-05-01T10:08:39.773Z,60.87
2019-05-01T10:11:07.118Z,60.97
2019-05-01T10:13:37.617Z,58.58
2019-05-01T10:16:08.074Z,57.14
2019-05-01T10:18:38.584Z,55.91
2019-05-01T10:21:09.041Z,54.50
2019-05-01T10:23:39.499Z,55.33
2019-05-01T10:26:11.598Z,55.01
2019-05-01T10:28:50.051Z,54.99
2019-05-01T10:31:20.275Z,57.18
2019-05-01T10:34:09.157Z,57.78
2019-05-01T10:36:41.405Z,57.40
2019-05-01T10:39:15.965Z,58.25
2019-05-01T10:41:47.870Z,57.75
2019-05-01T10:44:18.669Z,58.54
2019-05-01T10:46:49.135Z,56.51
2019-05-01T10:49:20.894Z,57.31
2019-05-01T10:51:51.967Z,57.22
2019-05-01T10:54:23.392Z,56.80
2019-05-01T10:56:53.897Z,57.46
2019-05-01T10:59:24.448Z,57.33
2019-05-01T11:01:56.530Z,57.48
2019-05-01T11:04:27.019Z,56.61
2019-05-01T11:06:57.671Z,56.21
2019-05-01T11:09:28.141Z,56.78
2019-05-01T11:12:04.499Z,56.80
2019-05-01T11:14:34.987Z,55.34
2019-05-01T11:17:05.537Z,54.07
2019-05-01T11:19:36.066Z,56.82
2019-05-01T11:22:06.544Z,57.79
2019-05-01T11:24:37.052Z,57.33
2019-05-01T11:27:08.118Z,57.37
2019-05-01T11:29:39.631Z,57.81
2019-05-01T11:32:20.914Z,57.99
2019-05-01T11:34:56.905Z,57.82
2019-05-01T11:37:31.704Z,57.35
2019-05-01T11:40:03.780Z,56.94
2019-05-01T11:42:34.309Z,56.51
2019-05-01T11:45:06.264Z,56.27
2019-05-01T11:47:37.138Z,56.25
2019-05-01T11:50:07.950Z,56.23
2019-05-01T11:52:38.405Z,56.08
2019-05-01T11:55:08.938Z,54.04
2019-05-01T11:57:39.406Z,51.76
2019-05-01T12:00:10.803Z,48.82
2019-05-01T12:02:41.243Z,44.09
2019-05-01T12:05:11.771Z,43.48
2019-05-01T12:07:42.304Z,43.27
2019-05-01T12:10:14.431Z,44.10
2019-05-01T12:12:45.202Z,44.28
2019-05-01T12:15:18.670Z,44.55
2019-05-01T12:17:50.357Z,44.93
2019-05-01T12:20:21.544Z,45.21
2019-05-01T12:22:52.018Z,45.24
2019-05-01T12:25:22.625Z,45.04
2019-05-01T12:27:53.240Z,44.72
2019-05-01T12:30:23.777Z,44.17
2019-05-01T12:32:56.324Z,44.41
2019-05-01T12:35:26.938Z,43.96
2019-05-01T12:37:59.044Z,44.29
2019-05-01T12:40:29.520Z,44.10
2019-05-01T12:43:03.721Z,43.83
2019-05-01T12:45:34.287Z,43.28
2019-05-01T12:48:04.806Z,42.85
2019-05-01T12:50:35.549Z,42.95
2019-05-01T12:53:10.964Z,42.41
2019-05-01T12:55:52.678Z,41.99
2019-05-01T12:58:23.114Z,42.79
2019-05-01T13:00:57.612Z,42.33
2019-05-01T13:03:28.175Z,42.21
2019-05-01T13:05:59.719Z,42.56
2019-05-01T13:08:30.242Z,42.85
2019-05-01T13:11:03.355Z,42.84
2019-05-01T13:13:33.814Z,41.99
2019-05-01T13:16:04.226Z,42.42
2019-05-01T13:18:34.668Z,41.26
2019-05-01T13:21:07.189Z,41.47
2019-05-01T13:23:37.745Z,41.54
2019-05-01T13:26:09.856Z,40.88
2019-05-01T13:28:41.928Z,41.38
2019-05-01T13:31:18.684Z,41.46
2019-05-01T13:33:49.148Z,41.69
2019-05-01T13:36:20.656Z,41.68
2019-05-01T13:38:51.102Z,42.04
2019-05-01T13:41:22.762Z,42.29
2019-05-01T13:43:53.419Z,42.40
2019-05-01T13:46:25.455Z,42.57
2019-05-01T13:48:55.926Z,42.25
2019-05-01T13:51:27.445Z,42.21
2019-05-01T13:53:58.993Z,42.34
2019-05-01T13:56:29.553Z,42.28
2019-05-01T13:59:00.070Z,42.04
2019-05-01T14:01:30.597Z,42.29
2019-05-01T14:04:01.096Z,42.48
2019-05-01T14:06:31.700Z,42.37
2019-05-01T14:09:02.267Z,41.92
2019-05-01T14:11:34.239Z,41.76
2019-05-01T14:14:04.757Z,41.91
2019-05-01T14:16:36.261Z,41.59
2019-05-01T14:19:07.788Z,42.04
2019-05-01T14:21:42.923Z,42.06
2019-05-01T14:24:27.075Z,42.28
2019-05-01T14:26:57.571Z,42.39
2019-05-01T14:29:28.083Z,42.49
2019-05-01T14:31:58.582Z,42.81
2019-05-01T14:34:33.710Z,42.70
2019-05-01T14:37:08.867Z,42.53
2019-05-01T14:39:40.414Z,42.67
2019-05-01T14:42:10.949Z,42.88
2019-05-01T14:44:42.512Z,42.70
2019-05-01T14:47:13.339Z,43.17
2019-05-01T14:49:44.326Z,43.16
2019-05-01T14:52:16.289Z,42.98
2019-05-01T14:54:46.809Z,42.88
2019-05-01T14:57:17.392Z,42.98
2019-05-01T14:59:47.959Z,42.69
2019-05-01T15:02:18.467Z,43.18
2019-05-01T15:04:49.001Z,42.85
2019-05-01T15:07:20.371Z,42.80
2019-05-01T15:09:50.800Z,42.74
2019-05-01T15:12:22.010Z,42.49
2019-05-01T15:14:57.267Z,42.64
2019-05-01T15:17:35.210Z,42.86
2019-05-01T15:20:06.717Z,43.07
2019-05-01T15:22:37.228Z,42.98
2019-05-01T15:25:07.733Z,43.16
2019-05-01T15:27:38.314Z,43.05
2019-05-01T15:30:10.214Z,43.34
2019-05-01T15:32:40.763Z,43.18
2019-05-01T15:35:12.390Z,43.38
2019-05-01T15:37:55.781Z,43.48
2019-05-01T15:40:16.690Z,45.03
2019-05-01T15:42:54.877Z,45.58
2019-05-01T15:45:26.805Z,45.19
2019-05-01T15:47:57.361Z,46.07
2019-05-01T15:50:27.899Z,46.24
2019-05-01T15:52:58.394Z,46.51
2019-05-01T15:55:28.858Z,45.94
2019-05-01T15:57:59.346Z,46.25
2019-05-01T16:00:29.911Z,46.43
2019-05-01T16:03:00.465Z,47.26
2019-05-01T16:05:30.941Z,48.42
2019-05-01T16:08:09.500Z,47.99
2019-05-01T16:10:38.027Z,48.06
2019-05-01T16:13:08.602Z,48.88
2019-05-01T16:15:39.208Z,48.61
2019-05-01T16:18:09.733Z,49.66
2019-05-01T16:20:40.282Z,50.98
2019-05-01T16:23:10.855Z,49.92
2019-05-01T16:25:42.472Z,51.56
2019-05-01T16:28:13.037Z,51.52
2019-05-01T16:30:43.545Z,52.80
2019-05-01T16:33:14.102Z,52.24
2019-05-01T16:35:44.574Z,52.98
2019-05-01T16:38:23.246Z,51.08
2019-05-01T16:40:56.612Z,52.14
2019-05-01T16:43:27.111Z,52.62
2019-05-01T16:45:59.651Z,53.95
2019-05-01T16:48:30.887Z,54.35
2019-05-01T16:51:01.368Z,52.28
2019-05-01T16:53:33.950Z,51.80
2019-05-01T16:56:04.432Z,51.51
2019-05-01T16:58:37.280Z,50.09
2019-05-01T17:01:09.444Z,49.79
2019-05-01T17:03:58.189Z,49.75
2019-05-01T17:06:49.516Z,49.12
2019-05-01T17:09:42.159Z,49.50
2019-05-01T17:12:13.835Z,49.52
2019-05-01T17:14:44.592Z,49.61
2019-05-01T17:17:16.665Z,49.67
2019-05-01T17:19:47.266Z,49.75
2019-05-01T17:22:17.753Z,49.99
2019-05-01T17:24:49.237Z,50.07
2019-05-01T17:27:19.705Z,50.32
2019-05-01T17:29:51.256Z,50.22
2019-05-01T17:32:21.863Z,50.47
2019-05-01T17:35:01.892Z,50.09
2019-05-01T17:37:31.345Z,50.67
2019-05-01T17:40:01.922Z,50.55
2019-05-01T17:42:32.980Z,50.12
2019-05-01T17:45:05.621Z,50.24
2019-05-01T17:47:36.135Z,50.21
2019-05-01T17:50:06.697Z,50.16
2019-05-01T17:52:38.232Z,49.42
2019-05-01T17:55:09.775Z,49.45
2019-05-01T17:57:40.478Z,49.42
2019-05-01T18:00:30.828Z,49.28
2019-05-01T18:03:06.847Z,49.33
2019-05-01T18:05:39.368Z,49.42
2019-05-01T18:08:10.854Z,49.60
2019-05-01T18:10:41.454Z,49.89
2019-05-01T18:13:13.041Z,50.00
2019-05-01T18:15:43.611Z,50.25
2019-05-01T18:18:16.528Z,50.00
2019-05-01T18:20:48.288Z,50.11
2019-05-01T18:23:37.606Z,50.52
2019-05-01T18:26:10.073Z,50.67
2019-05-01T18:29:00.733Z,50.85
2019-05-01T18:31:31.864Z,51.07
2019-05-01T18:34:04.484Z,51.01
2019-05-01T18:36:37.866Z,50.90
2019-05-01T18:39:17.126Z,51.01
2019-05-01T18:42:02.158Z,51.17
2019-05-01T18:44:33.949Z,51.24
2019-05-01T18:47:04.739Z,51.59
2019-05-01T18:49:36.244Z,51.35
2019-05-01T18:52:07.532Z,51.08
2019-05-01T18:54:38.020Z,51.24
2019-05-01T18:57:08.716Z,51.20
2019-05-01T18:59:39.217Z,51.35
2019-05-01T19:02:11.762Z,51.33
2019-05-01T19:04:42.254Z,51.55
2019-05-01T19:07:13.777Z,51.70
2019-05-01T19:09:44.305Z,51.90
2019-05-01T19:12:16.153Z,52.09
2019-05-01T19:14:46.875Z,52.29
2019-05-01T19:17:17.341Z,52.45
2019-05-01T19:19:48.818Z,52.71
2019-05-01T19:22:20.299Z,52.84
2019-05-01T19:24:50.972Z,52.93
2019-05-01T19:27:24.279Z,53.15
2019-05-01T19:29:53.768Z,53.45
2019-05-01T19:32:25.166Z,53.53
2019-05-01T19:34:55.646Z,53.46
2019-05-01T19:37:30.595Z,53.60
2019-05-01T19:39:59.330Z,53.64
2019-05-01T19:42:29.797Z,53.97
2019-05-01T19:45:00.089Z,54.44
2019-05-01T19:47:30.843Z,54.69
2019-05-01T19:50:07.167Z,55.65
2019-05-01T19:52:37.988Z,57.53
2019-05-01T19:55:10.203Z,58.40
2019-05-01T19:57:40.603Z,60.61
2019-05-01T20:00:12.355Z,61.29
2019-05-01T20:02:43.027Z,61.67
2019-05-01T20:05:14.475Z,62.31
2019-05-01T20:07:46.148Z,62.40
2019-05-01T20:10:18.066Z,62.63
2019-05-01T20:12:49.565Z,63.00
2019-05-01T20:15:24.893Z,62.98
2019-05-01T20:17:52.184Z,62.68
2019-05-01T20:20:22.679Z,62.80
2019-05-01T20:22:56.918Z,62.99
2019-05-01T20:25:27.434Z,62.93
2019-05-01T20:27:58.071Z,63.00
2019-05-01T20:30:28.595Z,63.09
2019-05-01T20:33:02.238Z,63.23
2019-05-01T20:35:34.148Z,63.17
2019-05-01T20:38:03.682Z,63.19
2019-05-01T20:40:34.169Z,63.18
2019-05-01T20:43:07.120Z,63.16
2019-05-01T20:45:37.902Z,63.07
2019-05-01T20:48:09.359Z,63.21
2019-05-01T20:50:40.924Z,63.43
2019-05-01T20:53:11.396Z,63.30
2019-05-01T20:55:45.556Z,63.21
2019-05-01T20:58:17.612Z,63.04
2019-05-01T21:00:53.480Z,62.64
2019-05-01T21:03:21.811Z,62.49
2019-05-01T21:05:56.867Z,62.41
2019-05-01T21:08:39.255Z,62.09
2019-05-01T21:11:10.969Z,61.93
2019-05-01T21:13:43.916Z,61.80
2019-05-01T21:16:14.420Z,61.55
2019-05-01T21:18:45.030Z,60.56
2019-05-01T21:21:15.589Z,60.89
2019-05-01T21:23:48.167Z,60.78
2019-05-01T21:26:18.202Z,60.79
2019-05-01T21:28:48.641Z,60.32
2019-05-01T21:31:19.131Z,60.35
2019-05-01T21:33:50.700Z,60.19
2019-05-01T21:36:22.186Z,60.17
2019-05-01T21:38:52.781Z,59.74
2019-05-01T21:41:23.305Z,59.71
2019-05-01T21:43:54.711Z,59.64
2019-05-01T21:46:28.170Z,59.44
2019-05-01T21:48:59.694Z,59.46
2019-05-01T21:51:30.336Z,59.59
2019-05-01T21:54:03.278Z,59.55
2019-05-01T21:56:36.863Z,59.65
2019-05-01T21:59:08.360Z,59.89
2019-05-01T22:01:38.318Z,60.10
2019-05-01T22:04:08.809Z,60.41
2019-05-01T22:06:39.270Z,60.55
2019-05-01T22:09:15.230Z,60.65
2019-05-01T22:11:47.321Z,60.95
2019-05-01T22:14:36.069Z,60.97
2019-05-01T22:17:06.399Z,61.26
2019-05-01T22:19:36.877Z,61.33
2019-05-01T22:22:11.667Z,61.28
2019-05-01T22:24:46.693Z,61.34
2019-05-01T22:27:21.473Z,61.44
2019-05-01T22:29:57.173Z,61.24
2019-05-01T22:32:34.331Z,61.47
2019-05-01T22:35:19.969Z,61.41
2019-05-01T22:37:50.473Z,61.60
2019-05-01T22:40:26.290Z,61.69
2019-05-01T22:42:57.826Z,61.69
2019-05-01T22:45:28.320Z,61.61
2019-05-01T22:47:59.883Z,61.76
2019-05-01T22:50:30.355Z,61.87
2019-05-01T22:53:00.865Z,62.04
2019-05-01T22:55:32.377Z,62.32
2019-05-01T22:58:03.891Z,62.37
2019-05-01T23:00:35.939Z,62.85
2019-05-01T23:03:08.028Z,63.15
2019-05-01T23:05:41.506Z,63.17
2019-05-01T23:08:12.094Z,63.20
2019-05-01T23:10:47.043Z,63.23
2019-05-01T23:13:14.613Z,63.54
2019-05-01T23:15:46.180Z,63.33
2019-05-01T23:18:17.762Z,63.65
2019-05-01T23:20:48.223Z,63.82
2019-05-01T23:23:18.727Z,63.73
2019-05-01T23:25:49.175Z,63.96
2019-05-01T23:28:19.670Z,64.07
2019-05-01T23:30:52.558Z,64.39
2019-05-01T23:33:23.094Z,64.88
2019-05-01T23:35:53.519Z,65.10
2019-05-01T23:38:24.050Z,65.32
2019-05-01T23:40:54.644Z,65.73
2019-05-01T23:43:27.852Z,66.10
2019-05-01T23:45:58.266Z,66.13
2019-05-01T23:48:28.762Z,66.43
2019-05-01T23:50:59.205Z,66.78
2019-05-01T23:53:29.585Z,66.80
2019-05-01T23:56:02.007Z,66.94
2019-05-01T23:58:33.316Z,67.11
